Time;durP1;ratioP1;P1;durP2;ratioP2;P2;SDS_P1;SDS_P2;PMS_P1;PMS_P2;Temp;Humidity;BMP_temperature;BMP_pressure;BME280_temperature;BME280_humidity;BME280_pressure;Samples;Min_cycle;Max_cycle;Signal;HPM_P1;HPM_P2
2022/04/17 00:00:48;;;;;;;4.85;3.47;;;;;;;;;;5058690;28;20041;-93
2022/04/17 00:03:15;;;;;;;5.65;3.78;;;;;;;;;;5057732;28;20059;-93
2022/04/17 00:05:42;;;;;;;5.40;3.33;;;;;;;;;;5056688;28;20132;-94
2022/04/17 00:08:09;;;;;;;6.47;3.38;;;;;;;;;;5055850;28;20084;-94
2022/04/17 00:10:37;;;;;;;5.75;3.65;;;;;;;;;;5055353;28;20524;-92
2022/04/17 00:13:04;;;;;;;3.78;3.47;;;;;;;;;;5055340;28;20049;-94
2022/04/17 00:15:32;;;;;;;4.80;3.45;;;;;;;;;;5056260;28;20049;-93
2022/04/17 00:17:59;;;;;;;5.78;3.50;;;;;;;;;;5055026;28;20131;-94
2022/04/17 00:20:26;;;;;;;4.50;3.75;;;;;;;;;;5055020;28;20489;-94
2022/04/17 00:22:53;;;;;;;5.05;3.63;;;;;;;;;;5055804;28;20056;-94
2022/04/17 00:25:21;;;;;;;5.90;3.70;;;;;;;;;;5056076;28;20045;-94
2022/04/17 00:27:48;;;;;;;5.65;3.50;;;;;;;;;;5055095;28;20052;-94
2022/04/17 00:30:15;;;;;;;4.63;2.95;;;;;;;;;;5055465;28;20040;-94
2022/04/17 00:32:45;;;;;;;4.32;3.47;;;;;;;;;;5055604;28;20045;-95
2022/04/17 00:35:12;;;;;;;6.90;3.53;;;;;;;;;;5071274;28;20104;-95
2022/04/17 00:37:39;;;;;;;4.72;4.00;;;;;;;;;;5075283;28;20088;-94
2022/04/17 00:40:07;;;;;;;4.20;3.67;;;;;;;;;;5054771;28;20077;-95
2022/04/17 00:42:34;;;;;;;5.88;3.85;;;;;;;;;;5054842;28;20083;-94
2022/04/17 00:45:01;;;;;;;4.28;3.58;;;;;;;;;;5054520;28;20182;-94
2022/04/17 00:47:28;;;;;;;5.07;3.22;;;;;;;;;;5054635;28;20171;-95
2022/04/17 00:49:55;;;;;;;4.13;3.53;;;;;;;;;;5055668;28;20099;-94
2022/04/17 00:52:23;;;;;;;7.20;4.05;;;;;;;;;;5055616;28;20045;-94
2022/04/17 00:54:50;;;;;;;6.43;4.10;;;;;;;;;;5055125;28;20489;-95
2022/04/17 00:57:18;;;;;;;5.85;4.20;;;;;;;;;;5054765;28;20045;-95
2022/04/17 00:59:46;;;;;;;7.47;3.47;;;;;;;;;;5054895;28;20497;-95
2022/04/17 01:02:14;;;;;;;3.83;3.42;;;;;;;;;;5054115;28;20048;-94
2022/04/17 01:04:42;;;;;;;5.65;3.50;;;;;;;;;;5054229;28;20401;-94
2022/04/17 01:07:13;;;;;;;4.70;3.85;;;;;;;;;;5055352;28;20095;-94
2022/04/17 01:09:40;;;;;;;5.18;4.03;;;;;;;;;;5055278;28;20091;-94
2022/04/17 01:12:10;;;;;;;5.20;3.67;;;;;;;;;;5054512;28;20124;-94
2022/04/17 01:14:39;;;;;;;6.13;4.10;;;;;;;;;;5053971;28;20045;-94
2022/04/17 01:17:06;;;;;;;9.27;4.20;;;;;;;;;;5055258;28;20091;-91
2022/04/17 01:19:37;;;;;;;7.32;3.88;;;;;;;;;;5054332;28;20048;-93
2022/04/17 01:22:06;;;;;;;6.45;4.43;;;;;;;;;;5054421;28;20133;-93
2022/04/17 01:27:22;;;;;;;7.57;4.10;;;;;;;;;;5054957;28;20056;-93
2022/04/17 01:29:53;;;;;;;6.00;4.93;;;;;;;;;;5055106;28;20128;-93
2022/04/17 01:32:21;;;;;;;6.28;4.40;;;;;;;;;;5054262;28;20059;-94
2022/04/17 01:34:48;;;;;;;8.70;4.43;;;;;;;;;;5053920;28;20049;-94
2022/04/17 01:37:16;;;;;;;5.35;4.38;;;;;;;;;;5054261;28;20060;-94
2022/04/17 01:39:44;;;;;;;4.25;3.72;;;;;;;;;;5054775;28;20134;-94
2022/04/17 01:42:12;;;;;;;6.40;3.88;;;;;;;;;;5053999;28;20468;-94
2022/04/17 01:44:40;;;;;;;6.45;4.00;;;;;;;;;;5054193;28;20056;-95
2022/04/17 01:47:07;;;;;;;9.32;3.92;;;;;;;;;;5055787;28;20111;-95
2022/04/17 01:49:36;;;;;;;6.35;3.92;;;;;;;;;;5057848;28;20049;-94
2022/04/17 01:52:03;;;;;;;6.07;4.22;;;;;;;;;;5076700;28;20039;-93
2022/04/17 01:54:32;;;;;;;8.20;4.70;;;;;;;;;;5061530;28;20056;-94
2022/04/17 01:56:59;;;;;;;7.10;4.25;;;;;;;;;;5053267;28;20101;-94
2022/04/17 01:59:26;;;;;;;6.30;4.70;;;;;;;;;;5053559;28;20127;-94
2022/04/17 02:01:54;;;;;;;4.60;4.15;;;;;;;;;;5053869;28;20049;-94
2022/04/17 02:04:23;;;;;;;5.40;4.47;;;;;;;;;;5052734;28;20056;-93
2022/04/17 02:06:50;;;;;;;8.38;4.60;;;;;;;;;;5053037;28;20049;-93
2022/04/17 02:09:17;;;;;;;5.45;4.45;;;;;;;;;;5052933;28;20067;-93
2022/04/17 02:11:45;;;;;;;8.20;4.90;;;;;;;;;;5053927;28;20045;-93
2022/04/17 02:14:12;;;;;;;5.72;4.50;;;;;;;;;;5053355;28;20529;-93
2022/04/17 02:16:40;;;;;;;6.55;4.30;;;;;;;;;;5052891;28;20517;-93
2022/04/17 02:19:07;;;;;;;5.88;3.67;;;;;;;;;;5053641;28;20053;-92
2022/04/17 02:21:34;;;;;;;5.00;3.65;;;;;;;;;;5052696;28;20049;-92
2022/04/17 02:24:02;;;;;;;4.20;3.90;;;;;;;;;;5053410;28;20059;-92
2022/04/17 02:26:30;;;;;;;5.95;3.60;;;;;;;;;;5052642;28;20045;-92
2022/04/17 02:28:58;;;;;;;7.05;4.30;;;;;;;;;;5052473;28;20049;-93
2022/04/17 02:31:26;;;;;;;6.13;4.43;;;;;;;;;;5052619;28;20482;-92
2022/04/17 02:33:54;;;;;;;7.07;4.45;;;;;;;;;;5052213;28;20055;-93
2022/04/17 02:36:21;;;;;;;4.90;4.45;;;;;;;;;;5052324;28;20053;-92
2022/04/17 02:38:48;;;;;;;6.10;4.80;;;;;;;;;;5052896;28;20132;-92
2022/04/17 02:41:15;;;;;;;8.52;4.90;;;;;;;;;;5053404;28;20052;-92
2022/04/17 02:43:42;;;;;;;6.95;4.65;;;;;;;;;;5052334;28;20088;-92
2022/04/17 02:46:10;;;;;;;5.00;4.50;;;;;;;;;;5051967;28;20085;-92
2022/04/17 02:48:37;;;;;;;7.72;4.80;;;;;;;;;;5052603;28;20056;-92
2022/04/17 02:51:04;;;;;;;5.65;4.70;;;;;;;;;;5052309;28;20495;-92
2022/04/17 02:53:32;;;;;;;5.70;4.28;;;;;;;;;;5052510;28;20049;-92
2022/04/17 02:56:00;;;;;;;4.53;4.10;;;;;;;;;;5052211;28;20131;-92
2022/04/17 02:58:28;;;;;;;6.30;4.00;;;;;;;;;;5052245;28;20089;-93
2022/04/17 03:06:27;;;;;;;8.57;4.35;;;;;;;;;;5066249;28;20057;-93
2022/04/17 03:08:54;;;;;;;6.18;4.03;;;;;;;;;;5072189;28;20045;-92
2022/04/17 03:11:22;;;;;;;4.82;3.65;;;;;;;;;;5052259;28;20099;-92
2022/04/17 03:13:49;;;;;;;4.22;3.63;;;;;;;;;;5053272;28;20049;-92
2022/04/17 03:16:16;;;;;;;5.45;4.18;;;;;;;;;;5052470;28;20087;-92
2022/04/17 03:18:44;;;;;;;6.80;4.18;;;;;;;;;;5051836;28;20053;-92
2022/04/17 03:21:11;;;;;;;4.72;3.58;;;;;;;;;;5052194;28;20424;-92
2022/04/17 03:23:38;;;;;;;4.78;4.28;;;;;;;;;;5052739;28;20084;-89
2022/04/17 03:26:05;;;;;;;8.50;4.60;;;;;;;;;;5052694;28;20132;-90
2022/04/17 03:28:32;;;;;;;6.18;4.13;;;;;;;;;;5052088;28;20132;-90
2022/04/17 03:30:59;;;;;;;8.23;4.15;;;;;;;;;;5052717;28;20124;-93
2022/04/17 03:33:28;;;;;;;10.73;4.60;;;;;;;;;;5051837;28;20128;-93
2022/04/17 03:35:56;;;;;;;6.78;4.75;;;;;;;;;;5051557;28;20057;-93
2022/04/17 03:38:23;;;;;;;10.57;3.90;;;;;;;;;;5052761;28;20052;-93
2022/04/17 03:40:50;;;;;;;8.80;5.18;;;;;;;;;;5051798;28;20532;-93
2022/04/17 03:43:18;;;;;;;7.53;4.20;;;;;;;;;;5052712;28;20136;-93
2022/04/17 03:45:47;;;;;;;11.57;5.00;;;;;;;;;;5051969;28;20053;-94
2022/04/17 03:48:16;;;;;;;5.35;4.32;;;;;;;;;;5052008;28;20128;-93
2022/04/17 03:50:44;;;;;;;5.03;4.10;;;;;;;;;;5052501;28;20079;-91
2022/04/17 03:53:11;;;;;;;6.05;3.92;;;;;;;;;;5051769;28;20128;-93
2022/04/17 03:55:38;;;;;;;5.72;4.20;;;;;;;;;;5052856;28;20561;-93
2022/04/17 03:58:05;;;;;;;7.47;4.57;;;;;;;;;;5052388;28;20533;-93
2022/04/17 04:00:32;;;;;;;5.05;4.18;;;;;;;;;;5052790;28;20120;-93
2022/04/17 04:03:03;;;;;;;5.45;4.50;;;;;;;;;;5051433;28;20049;-93
2022/04/17 04:05:31;;;;;;;8.57;4.93;;;;;;;;;;5052200;28;20069;-93
2022/04/17 04:07:58;;;;;;;7.50;4.65;;;;;;;;;;5051524;28;20049;-93
2022/04/17 04:10:26;;;;;;;4.95;4.50;;;;;;;;;;5051750;28;20049;-93
2022/04/17 04:12:53;;;;;;;5.70;4.80;;;;;;;;;;5051708;28;20132;-93
2022/04/17 04:15:20;;;;;;;12.32;6.07;;;;;;;;;;5053974;28;20565;-93
2022/04/17 04:17:47;;;;;;;12.70;6.05;;;;;;;;;;5055184;28;20076;-93
2022/04/17 04:20:15;;;;;;;10.30;5.45;;;;;;;;;;5056450;28;20063;-92
2022/04/17 04:22:42;;;;;;;8.63;5.75;;;;;;;;;;5066652;28;20052;-90
2022/04/17 04:25:09;;;;;;;7.85;4.47;;;;;;;;;;5067493;28;20110;-93
2022/04/17 04:30:22;;;;;;;8.13;4.95;;;;;;;;;;5055717;28;20080;-93
2022/04/17 04:32:56;;;;;;;9.80;4.95;;;;;;;;;;5054803;28;20468;-94
2022/04/17 04:35:26;;;;;;;11.15;6.45;;;;;;;;;;5054776;28;20053;-94
2022/04/17 04:37:54;;;;;;;14.23;7.22;;;;;;;;;;5055951;28;20494;-94
2022/04/17 04:40:21;;;;;;;12.27;7.82;;;;;;;;;;5054614;28;20135;-93
2022/04/17 04:42:56;;;;;;;20.63;9.43;;;;;;;;;;5054763;28;20155;-94
2022/04/17 04:48:09;;;;;;;24.08;11.45;;;;;;;;;;5055872;28;20049;-94
2022/04/17 04:50:36;;;;;;;9.02;6.40;;;;;;;;;;5056075;28;20084;-94
2022/04/17 04:53:03;;;;;;;7.85;5.45;;;;;;;;;;5058112;28;20473;-94
2022/04/17 04:55:30;;;;;;;8.10;5.72;;;;;;;;;;5008114;22;20076;-86
2022/04/17 04:58:01;;;;;;;10.20;7.10;;;;;;;;;;4938034;28;20134;-86
2022/04/17 05:00:28;;;;;;;13.00;9.20;;;;;;;;;;4937662;28;20082;-86
2022/04/17 05:02:55;;;;;;;15.05;11.07;;;;;;;;;;4937604;29;20514;-87
2022/04/17 05:05:22;;;;;;;18.00;12.15;;;;;;;;;;4947805;28;20489;-87
2022/04/17 05:07:50;;;;;;;14.65;10.90;;;;;;;;;;4956510;29;20058;-87
2022/04/17 05:10:17;;;;;;;16.02;11.57;;;;;;;;;;4956012;29;20121;-86
2022/04/17 05:12:45;;;;;;;14.55;10.27;;;;;;;;;;4956311;28;20082;-87
2022/04/17 05:15:12;;;;;;;12.63;9.38;;;;;;;;;;4956372;28;20051;-86
2022/04/17 05:17:39;;;;;;;10.00;8.10;;;;;;;;;;4956568;29;20121;-87
2022/04/17 05:20:07;;;;;;;8.57;7.30;;;;;;;;;;4956305;29;20086;-87
2022/04/17 05:22:34;;;;;;;6.20;5.63;;;;;;;;;;4957408;29;20051;-85
2022/04/17 05:25:01;;;;;;;8.90;5.28;;;;;;;;;;4955851;29;20067;-87
2022/04/17 05:27:29;;;;;;;5.53;4.18;;;;;;;;;;4956473;29;20077;-85
2022/04/17 05:29:56;;;;;;;6.07;3.63;;;;;;;;;;4959197;29;20051;-85
2022/04/17 05:32:23;;;;;;;4.13;3.25;;;;;;;;;;4957288;28;20465;-85
2022/04/17 05:34:51;;;;;;;2.50;2.20;;;;;;;;;;4959220;29;20055;-85
2022/04/17 05:37:18;;;;;;;3.92;2.78;;;;;;;;;;4957535;29;20066;-85
2022/04/17 05:39:45;;;;;;;3.25;2.95;;;;;;;;;;4956402;29;20082;-85
2022/04/17 05:42:13;;;;;;;2.40;2.30;;;;;;;;;;4959173;28;20070;-87
2022/04/17 05:44:45;;;;;;;2.15;1.98;;;;;;;;;;4956502;29;20047;-86
2022/04/17 05:47:13;;;;;;;3.25;2.70;;;;;;;;;;4962962;28;20055;-85
2022/04/17 05:49:40;;;;;;;4.10;3.80;;;;;;;;;;4956953;29;20048;-86
2022/04/17 05:52:07;;;;;;;3.70;3.40;;;;;;;;;;4956182;29;20166;-85
2022/04/17 05:54:34;;;;;;;2.72;2.20;;;;;;;;;;4956185;29;20085;-85
2022/04/17 05:57:02;;;;;;;3.03;2.00;;;;;;;;;;4955818;29;20426;-83
2022/04/17 05:59:29;;;;;;;3.45;1.83;;;;;;;;;;4956133;29;20565;-86
2022/04/17 06:01:56;;;;;;;3.47;2.03;;;;;;;;;;4956923;28;20395;-86
2022/04/17 06:04:23;;;;;;;2.22;1.92;;;;;;;;;;4955298;29;20055;-86
2022/04/17 06:06:51;;;;;;;2.90;1.73;;;;;;;;;;4955151;29;20047;-87
2022/04/17 06:09:18;;;;;;;3.13;1.95;;;;;;;;;;4954983;29;20082;-87
2022/04/17 06:11:45;;;;;;;2.72;1.80;;;;;;;;;;4957264;28;20077;-87
2022/04/17 06:14:12;;;;;;;3.40;1.83;;;;;;;;;;4955612;29;20055;-87
2022/04/17 06:16:40;;;;;;;3.60;2.42;;;;;;;;;;4956374;29;20478;-87
2022/04/17 06:19:11;;;;;;;2.15;1.80;;;;;;;;;;4956309;29;20051;-87
2022/04/17 06:21:39;;;;;;;2.30;1.80;;;;;;;;;;4957412;29;20048;-85
2022/04/17 06:24:06;;;;;;;2.70;1.45;;;;;;;;;;4958239;29;20460;-85
2022/04/17 06:26:33;;;;;;;2.25;1.88;;;;;;;;;;4957546;29;20087;-84
2022/04/17 06:29:05;;;;;;;3.63;2.00;;;;;;;;;;4957115;29;20054;-84
2022/04/17 06:31:32;;;;;;;1.95;1.30;;;;;;;;;;4957042;28;20043;-84
2022/04/17 06:33:59;;;;;;;2.72;1.90;;;;;;;;;;4956578;29;20058;-85
2022/04/17 06:36:27;;;;;;;2.83;2.00;;;;;;;;;;4957830;28;20062;-86
2022/04/17 06:38:55;;;;;;;2.15;1.92;;;;;;;;;;4954893;29;20052;-87
2022/04/17 06:41:22;;;;;;;3.75;1.88;;;;;;;;;;4955244;28;20145;-85
2022/04/17 06:43:50;;;;;;;9.63;2.55;;;;;;;;;;4957248;29;20105;-84
2022/04/17 06:46:18;;;;;;;13.38;2.55;;;;;;;;;;4956745;28;20058;-86
2022/04/17 06:48:45;;;;;;;9.95;2.55;;;;;;;;;;4956695;28;20051;-86
2022/04/17 06:51:12;;;;;;;16.88;3.85;;;;;;;;;;4954849;29;20077;-87
2022/04/17 06:53:40;;;;;;;24.48;6.40;;;;;;;;;;4954050;29;20105;-86
2022/04/17 06:56:08;;;;;;;55.70;34.67;;;;;;;;;;4953552;29;20065;-87
2022/04/17 06:58:35;;;;;;;90.65;60.42;;;;;;;;;;4953302;28;20051;-86
2022/04/17 07:01:02;;;;;;;41.63;24.08;;;;;;;;;;4953390;29;20061;-86
2022/04/17 07:03:29;;;;;;;51.38;24.83;;;;;;;;;;4955476;28;20563;-88
2022/04/17 07:05:56;;;;;;;72.43;49.65;;;;;;;;;;4958576;29;20063;-85
2022/04/17 07:08:25;;;;;;;33.97;21.25;;;;;;;;;;4955747;28;20048;-82
2022/04/17 07:10:52;;;;;;;74.00;53.28;;;;;;;;;;4955446;29;20043;-87
2022/04/17 07:13:19;;;;;;;34.22;17.88;;;;;;;;;;4954111;28;20082;-87
2022/04/17 07:15:48;;;;;;;48.90;33.22;;;;;;;;;;4956006;29;20051;-87
2022/04/17 07:18:15;;;;;;;15.38;4.32;;;;;;;;;;4954333;29;20078;-85
2022/04/17 07:20:42;;;;;;;24.73;17.75;;;;;;;;;;4955092;29;20078;-84
2022/04/17 07:23:11;;;;;;;12.88;3.35;;;;;;;;;;4954483;29;20097;-85
2022/04/17 07:25:38;;;;;;;24.15;16.02;;;;;;;;;;4956263;29;20083;-83
2022/04/17 07:28:05;;;;;;;15.43;5.93;;;;;;;;;;4956032;29;20047;-82
2022/04/17 07:30:35;;;;;;;12.18;4.28;;;;;;;;;;4956508;29;20109;-83
2022/04/17 07:33:03;;;;;;;6.95;3.17;;;;;;;;;;4956790;28;20063;-83
2022/04/17 07:35:30;;;;;;;8.93;3.25;;;;;;;;;;4955579;29;20071;-83
2022/04/17 07:37:57;;;;;;;6.68;3.17;;;;;;;;;;4956469;29;20147;-83
2022/04/17 07:40:28;;;;;;;4.35;2.80;;;;;;;;;;4955950;29;20078;-85
2022/04/17 07:43:00;;;;;;;8.70;2.75;;;;;;;;;;4958236;29;20090;-85
2022/04/17 07:45:28;;;;;;;4.32;2.55;;;;;;;;;;4960524;29;20052;-85
2022/04/17 07:47:55;;;;;;;4.35;2.72;;;;;;;;;;4962129;28;20139;-85
2022/04/17 07:50:27;;;;;;;7.03;2.47;;;;;;;;;;4963275;29;20059;-85
2022/04/17 07:52:54;;;;;;;6.78;3.00;;;;;;;;;;4959185;28;20090;-85
2022/04/17 07:55:22;;;;;;;5.82;3.35;;;;;;;;;;4956459;29;20097;-84
2022/04/17 07:57:57;;;;;;;3.90;2.83;;;;;;;;;;4956544;28;20047;-84
2022/04/17 08:00:25;;;;;;;4.97;2.40;;;;;;;;;;4956178;29;20130;-85
2022/04/17 08:03:20;;;;;;;5.00;2.85;;;;;;;;;;4956774;29;20055;-85
2022/04/17 08:05:48;;;;;;;5.68;3.60;;;;;;;;;;4956814;29;20047;-85
2022/04/17 08:08:15;;;;;;;7.03;3.50;;;;;;;;;;4958300;29;20108;-85
2022/04/17 08:10:43;;;;;;;7.30;3.65;;;;;;;;;;4957571;29;20112;-82
2022/04/17 08:13:10;;;;;;;11.68;3.63;;;;;;;;;;4957947;29;20083;-82
2022/04/17 08:15:37;;;;;;;9.27;3.80;;;;;;;;;;4957719;29;20077;-82
2022/04/17 08:18:04;;;;;;;4.72;3.95;;;;;;;;;;4957491;29;20055;-85
2022/04/17 08:20:32;;;;;;;8.23;7.43;;;;;;;;;;4955582;29;20075;-88
2022/04/17 08:22:59;;;;;;;4.90;3.42;;;;;;;;;;4958671;28;20047;-83
2022/04/17 08:25:26;;;;;;;3.38;2.97;;;;;;;;;;4959018;28;20087;-82
2022/04/17 08:27:55;;;;;;;6.32;4.80;;;;;;;;;;4960774;29;20051;-84
2022/04/17 08:30:23;;;;;;;4.88;3.60;;;;;;;;;;4959785;29;20074;-83
2022/04/17 08:32:50;;;;;;;5.35;4.20;;;;;;;;;;4957496;29;20051;-83
2022/04/17 08:35:18;;;;;;;6.05;3.65;;;;;;;;;;4958885;29;20129;-85
2022/04/17 08:37:45;;;;;;;4.85;3.42;;;;;;;;;;4960145;29;20055;-85
2022/04/17 08:40:13;;;;;;;3.63;2.88;;;;;;;;;;4957859;29;20570;-86
2022/04/17 08:42:40;;;;;;;5.25;3.25;;;;;;;;;;4959010;28;20138;-84
2022/04/17 08:45:09;;;;;;;3.88;3.58;;;;;;;;;;4957216;29;20051;-83
2022/04/17 08:47:40;;;;;;;33.05;26.80;;;;;;;;;;4955802;28;20570;-83
2022/04/17 08:50:08;;;;;;;4.20;3.75;;;;;;;;;;4956112;29;20506;-82
2022/04/17 08:52:37;;;;;;;3.08;2.83;;;;;;;;;;4956002;29;20089;-84
2022/04/17 08:55:04;;;;;;;3.95;3.13;;;;;;;;;;4956062;29;20058;-81
2022/04/17 08:57:31;;;;;;;4.40;2.50;;;;;;;;;;4955769;29;20047;-81
2022/04/17 08:59:58;;;;;;;3.30;2.70;;;;;;;;;;4955768;29;20070;-80
2022/04/17 09:02:25;;;;;;;5.13;2.47;;;;;;;;;;4955833;28;20138;-85
2022/04/17 09:04:53;;;;;;;5.45;3.20;;;;;;;;;;4958737;28;20536;-82
2022/04/17 09:07:20;;;;;;;7.63;4.57;;;;;;;;;;4956903;29;20047;-82
2022/04/17 09:09:51;;;;;;;3.20;2.92;;;;;;;;;;4957842;29;20057;-82
2022/04/17 09:12:19;;;;;;;2.25;2.15;;;;;;;;;;4957335;28;20071;-83
2022/04/17 09:14:47;;;;;;;11.13;7.40;;;;;;;;;;4957017;29;20083;-85
2022/04/17 09:17:15;;;;;;;26.67;20.02;;;;;;;;;;4956628;29;20065;-84
2022/04/17 09:19:43;;;;;;;4.35;3.30;;;;;;;;;;4958328;28;20134;-85
2022/04/17 09:22:10;;;;;;;3.40;2.30;;;;;;;;;;4956375;29;20517;-86
2022/04/17 09:24:38;;;;;;;13.85;12.10;;;;;;;;;;4958338;28;20074;-84
2022/04/17 09:27:06;;;;;;;4.47;2.38;;;;;;;;;;4955804;28;20472;-84
2022/04/17 09:29:36;;;;;;;4.05;3.65;;;;;;;;;;4957293;29;20094;-84
2022/04/17 09:32:03;;;;;;;2.60;2.40;;;;;;;;;;4957364;29;20470;-83
2022/04/17 09:34:47;;;;;;;3.33;2.55;;;;;;;;;;4957061;29;20055;-83
2022/04/17 09:37:15;;;;;;;4.72;2.70;;;;;;;;;;4957264;29;20090;-85
2022/04/17 09:39:42;;;;;;;2.22;2.08;;;;;;;;;;4955796;28;20086;-84
2022/04/17 09:42:10;;;;;;;27.10;17.58;;;;;;;;;;4956560;28;20058;-84
2022/04/17 09:44:47;;;;;;;8.65;6.43;;;;;;;;;;4955836;29;20051;-84
2022/04/17 09:47:17;;;;;;;3.95;3.58;;;;;;;;;;4956050;29;20043;-84
2022/04/17 09:50:06;;;;;;;3.53;2.38;;;;;;;;;;4956311;29;20051;-85
2022/04/17 09:52:35;;;;;;;10.18;9.10;;;;;;;;;;4956100;29;20071;-86
2022/04/17 09:55:03;;;;;;;8.45;6.57;;;;;;;;;;4955382;29;20170;-85
2022/04/17 09:57:30;;;;;;;2.38;2.22;;;;;;;;;;4957042;29;20055;-84
2022/04/17 09:59:58;;;;;;;5.15;4.53;;;;;;;;;;4956615;29;20146;-85
2022/04/17 10:02:25;;;;;;;13.77;8.43;;;;;;;;;;4955676;29;20079;-85
2022/04/17 10:04:53;;;;;;;8.07;7.28;;;;;;;;;;4955321;29;20050;-83
2022/04/17 10:07:22;;;;;;;8.98;7.63;;;;;;;;;;4956175;28;20540;-83
2022/04/17 10:09:49;;;;;;;12.00;8.88;;;;;;;;;;4955623;29;20080;-84
2022/04/17 10:12:19;;;;;;;12.27;10.52;;;;;;;;;;4955434;28;20137;-85
2022/04/17 10:14:48;;;;;;;22.55;15.05;;;;;;;;;;4955995;29;20086;-85
2022/04/17 10:17:20;;;;;;;8.25;6.43;;;;;;;;;;4955944;29;20070;-85
2022/04/17 10:19:48;;;;;;;6.78;6.18;;;;;;;;;;4956353;29;20070;-82
2022/04/17 10:22:18;;;;;;;4.68;3.22;;;;;;;;;;4955836;28;20134;-83
2022/04/17 10:24:51;;;;;;;3.78;2.60;;;;;;;;;;4956670;29;20055;-82
2022/04/17 10:27:23;;;;;;;3.75;3.45;;;;;;;;;;4955466;29;20055;-85
2022/04/17 10:29:58;;;;;;;9.60;8.52;;;;;;;;;;4958127;28;20043;-83
2022/04/17 10:32:25;;;;;;;4.28;3.17;;;;;;;;;;4956471;29;20043;-81
2022/04/17 10:35:12;;;;;;;3.15;2.90;;;;;;;;;;4956496;29;20085;-84
2022/04/17 10:38:11;;;;;;;3.25;2.35;;;;;;;;;;4956258;28;20557;-82
2022/04/17 10:40:38;;;;;;;2.30;2.13;;;;;;;;;;4955906;29;20489;-81
2022/04/17 10:43:06;;;;;;;2.30;2.15;;;;;;;;;;4955516;28;20086;-81
2022/04/17 10:45:33;;;;;;;2.53;2.30;;;;;;;;;;4954826;29;20082;-82
2022/04/17 10:48:02;;;;;;;2.67;2.42;;;;;;;;;;4954723;29;20170;-85
2022/04/17 10:50:51;;;;;;;3.53;2.80;;;;;;;;;;4955713;29;20075;-84
2022/04/17 10:53:28;;;;;;;4.55;2.60;;;;;;;;;;4955283;28;20162;-84
2022/04/17 10:56:03;;;;;;;3.40;3.05;;;;;;;;;;4954478;29;20101;-85
2022/04/17 10:58:45;;;;;;;5.50;2.70;;;;;;;;;;4954806;29;20093;-85
2022/04/17 11:01:12;;;;;;;3.38;2.58;;;;;;;;;;4957084;28;20081;-83
2022/04/17 11:03:49;;;;;;;2.45;2.30;;;;;;;;;;4955309;29;20047;-81
2022/04/17 11:06:33;;;;;;;2.95;2.50;;;;;;;;;;4955105;29;20074;-85
2022/04/17 11:09:04;;;;;;;3.67;2.72;;;;;;;;;;4955427;29;20055;-83
2022/04/17 11:11:35;;;;;;;5.72;5.05;;;;;;;;;;4955079;29;20055;-82
2022/04/17 11:14:12;;;;;;;2.75;2.47;;;;;;;;;;4955013;29;20051;-82
2022/04/17 11:16:48;;;;;;;3.30;3.10;;;;;;;;;;4955164;29;20066;-83
2022/04/17 11:19:17;;;;;;;2.50;2.30;;;;;;;;;;4955000;29;20115;-84
2022/04/17 11:21:46;;;;;;;3.05;2.03;;;;;;;;;;4954202;29;20055;-85
2022/04/17 11:24:13;;;;;;;3.92;2.67;;;;;;;;;;4956697;29;20078;-85
2022/04/17 11:26:52;;;;;;;2.45;2.00;;;;;;;;;;4959687;28;20086;-85
2022/04/17 11:29:39;;;;;;;2.55;2.35;;;;;;;;;;4958316;29;20051;-80
2022/04/17 11:32:18;;;;;;;11.15;9.02;;;;;;;;;;4957333;29;20234;-81
2022/04/17 11:34:54;;;;;;;2.17;1.98;;;;;;;;;;4957393;29;20048;-80
2022/04/17 11:37:29;;;;;;;2.25;2.03;;;;;;;;;;4957072;29;20105;-80
2022/04/17 11:40:14;;;;;;;2.22;2.10;;;;;;;;;;4958572;29;20057;-84
2022/04/17 11:42:46;;;;;;;2.90;2.40;;;;;;;;;;4959733;28;20062;-84
2022/04/17 11:45:14;;;;;;;4.45;4.05;;;;;;;;;;4958301;29;20557;-84
2022/04/17 11:47:42;;;;;;;2.95;2.40;;;;;;;;;;4958134;29;20047;-84
2022/04/17 11:50:20;;;;;;;2.45;2.25;;;;;;;;;;4957665;29;20138;-83
2022/04/17 11:52:54;;;;;;;2.25;2.05;;;;;;;;;;4956464;29;20051;-82
2022/04/17 11:55:25;;;;;;;1.80;1.70;;;;;;;;;;4956000;29;20579;-81
2022/04/17 11:57:52;;;;;;;1.98;1.88;;;;;;;;;;4955321;29;20083;-84
2022/04/17 12:00:19;;;;;;;2.15;2.05;;;;;;;;;;4955579;29;20134;-83
2022/04/17 12:02:47;;;;;;;3.03;2.15;;;;;;;;;;4956168;29;20102;-80
2022/04/17 12:05:14;;;;;;;3.75;2.30;;;;;;;;;;4957986;29;20077;-84
2022/04/17 12:07:43;;;;;;;2.85;2.10;;;;;;;;;;4956583;29;20051;-80
2022/04/17 12:10:12;;;;;;;2.30;2.20;;;;;;;;;;4958320;29;20505;-82
2022/04/17 12:12:44;;;;;;;2.17;1.98;;;;;;;;;;4956836;29;20043;-83
2022/04/17 12:15:11;;;;;;;3.55;2.17;;;;;;;;;;4956137;29;20082;-82
2022/04/17 12:17:39;;;;;;;3.67;2.30;;;;;;;;;;4955864;29;20085;-83
2022/04/17 12:20:08;;;;;;;2.72;2.17;;;;;;;;;;4961449;29;20059;-82
2022/04/17 12:22:36;;;;;;;3.22;2.28;;;;;;;;;;4960398;28;20074;-82
2022/04/17 12:25:04;;;;;;;5.63;2.20;;;;;;;;;;4960006;29;20098;-85
2022/04/17 12:27:31;;;;;;;2.63;2.40;;;;;;;;;;4959684;29;20126;-84
2022/04/17 12:29:59;;;;;;;2.95;2.72;;;;;;;;;;4958012;29;20109;-84
2022/04/17 12:32:26;;;;;;;3.17;2.97;;;;;;;;;;4958223;29;20047;-84
2022/04/17 12:35:00;;;;;;;2.45;2.20;;;;;;;;;;4955452;28;20078;-80
2022/04/17 12:37:29;;;;;;;2.33;1.98;;;;;;;;;;4958330;28;20082;-82
2022/04/17 12:40:09;;;;;;;3.65;2.20;;;;;;;;;;4956255;28;20159;-83
2022/04/17 12:42:36;;;;;;;31.10;17.40;;;;;;;;;;4956047;29;20125;-82
2022/04/17 12:45:05;;;;;;;6.78;3.13;;;;;;;;;;4956811;28;20085;-84
2022/04/17 12:47:33;;;;;;;5.63;2.03;;;;;;;;;;4955503;29;20465;-84
2022/04/17 12:50:05;;;;;;;2.20;2.00;;;;;;;;;;4956218;28;20085;-83
2022/04/17 12:52:32;;;;;;;2.22;2.10;;;;;;;;;;4955512;28;20087;-82
2022/04/17 12:55:09;;;;;;;2.15;1.77;;;;;;;;;;4953408;28;20573;-81
2022/04/17 12:57:36;;;;;;;2.33;1.88;;;;;;;;;;4953989;29;20055;-81
2022/04/17 13:00:17;;;;;;;3.33;1.95;;;;;;;;;;4954825;28;20059;-83
2022/04/17 13:02:44;;;;;;;3.42;1.77;;;;;;;;;;4954462;29;20051;-80
2022/04/17 13:05:21;;;;;;;1.80;1.70;;;;;;;;;;4955922;28;20047;-82
2022/04/17 13:07:48;;;;;;;3.90;1.80;;;;;;;;;;4956158;29;20047;-80
2022/04/17 13:10:15;;;;;;;4.25;2.20;;;;;;;;;;4960648;28;20107;-83
2022/04/17 13:12:46;;;;;;;2.40;2.13;;;;;;;;;;4961092;28;20051;-83
2022/04/17 13:15:15;;;;;;;2.33;1.80;;;;;;;;;;4958858;29;20395;-84
2022/04/17 13:17:46;;;;;;;2.88;2.15;;;;;;;;;;4957673;29;20442;-83
2022/04/17 13:20:13;;;;;;;2.38;2.00;;;;;;;;;;4957318;29;20494;-82
2022/04/17 13:22:41;;;;;;;4.60;2.20;;;;;;;;;;4957926;28;20051;-79
2022/04/17 13:25:08;;;;;;;2.15;1.75;;;;;;;;;;4956325;29;20063;-82
2022/04/17 13:27:36;;;;;;;3.97;2.30;;;;;;;;;;4955956;29;20418;-85
2022/04/17 13:30:04;;;;;;;2.03;1.83;;;;;;;;;;4957274;28;20133;-84
2022/04/17 13:32:31;;;;;;;2.25;1.98;;;;;;;;;;4955417;29;20063;-82
2022/04/17 13:34:58;;;;;;;63.95;41.92;;;;;;;;;;4956532;28;20479;-82
2022/04/17 13:40:12;;;;;;;2.78;2.58;;;;;;;;;;4956037;28;20474;-81
2022/04/17 13:42:39;;;;;;;2.38;2.17;;;;;;;;;;4954108;28;20142;-82
2022/04/17 13:45:07;;;;;;;2.15;1.92;;;;;;;;;;4953656;28;20138;-82
2022/04/17 13:47:34;;;;;;;2.17;1.98;;;;;;;;;;4953076;29;20138;-81
2022/04/17 13:50:02;;;;;;;2.55;2.17;;;;;;;;;;4954127;28;20550;-85
2022/04/17 13:52:29;;;;;;;2.85;2.53;;;;;;;;;;4952603;29;20081;-83
2022/04/17 13:54:56;;;;;;;5.55;4.57;;;;;;;;;;4954210;28;20149;-84
2022/04/17 13:57:23;;;;;;;5.10;3.88;;;;;;;;;;4952943;29;20074;-83
2022/04/17 13:59:51;;;;;;;9.65;6.22;;;;;;;;;;4953510;28;20090;-83
2022/04/17 14:02:18;;;;;;;12.52;9.45;;;;;;;;;;4953825;28;20582;-84
2022/04/17 14:04:45;;;;;;;3.85;2.60;;;;;;;;;;4951929;29;20419;-81
2022/04/17 14:07:12;;;;;;;5.38;4.97;;;;;;;;;;4951974;29;20043;-83
2022/04/17 14:09:40;;;;;;;5.60;3.47;;;;;;;;;;4952316;29;20051;-83
2022/04/17 14:12:09;;;;;;;4.28;2.50;;;;;;;;;;4952106;28;20086;-83
2022/04/17 14:14:36;;;;;;;2.38;1.90;;;;;;;;;;4954012;28;20071;-83
2022/04/17 14:17:04;;;;;;;2.03;1.83;;;;;;;;;;4952381;29;20138;-83
2022/04/17 14:19:31;;;;;;;2.33;2.10;;;;;;;;;;4952210;28;20051;-82
2022/04/17 14:21:58;;;;;;;1.92;1.83;;;;;;;;;;4952427;29;20414;-83
2022/04/17 14:24:25;;;;;;;1.63;1.38;;;;;;;;;;4952238;28;20057;-83
2022/04/17 14:26:53;;;;;;;2.22;1.38;;;;;;;;;;4951945;29;20074;-83
2022/04/17 14:29:20;;;;;;;2.95;1.92;;;;;;;;;;4951658;29;20052;-83
2022/04/17 14:31:47;;;;;;;15.70;12.68;;;;;;;;;;4952165;29;20051;-83
2022/04/17 14:34:14;;;;;;;6.57;5.85;;;;;;;;;;4952017;29;20154;-82
2022/04/17 14:36:42;;;;;;;6.53;5.78;;;;;;;;;;4951395;29;20086;-82
2022/04/17 14:39:09;;;;;;;7.78;6.93;;;;;;;;;;4951719;28;20066;-83
2022/04/17 14:41:37;;;;;;;2.50;2.30;;;;;;;;;;4953067;28;20043;-83
2022/04/17 14:44:05;;;;;;;5.70;4.70;;;;;;;;;;4951571;29;20078;-84
2022/04/17 14:46:33;;;;;;;2.08;1.65;;;;;;;;;;4951767;29;20093;-84
2022/04/17 14:49:00;;;;;;;1.90;1.80;;;;;;;;;;4951873;28;20475;-83
2022/04/17 14:51:27;;;;;;;3.13;1.52;;;;;;;;;;4951071;29;20093;-81
2022/04/17 14:53:54;;;;;;;1.80;1.40;;;;;;;;;;4951190;28;20406;-83
2022/04/17 14:56:21;;;;;;;3.13;1.90;;;;;;;;;;4950723;29;20079;-84
2022/04/17 14:58:49;;;;;;;1.85;1.67;;;;;;;;;;4950109;28;20051;-83
2022/04/17 15:01:16;;;;;;;3.17;2.97;;;;;;;;;;4951081;29;20047;-83
2022/04/17 15:03:44;;;;;;;1.80;1.70;;;;;;;;;;4950666;28;20089;-83
2022/04/17 15:06:13;;;;;;;3.35;3.00;;;;;;;;;;4950593;29;20133;-83